Gonzales, California
Current Conditions -  °F | °C
As of 10:53 AM on Saturday 25 Oct 2014 (Local Time) from KSNS Reporting Station
Light Rain Light Rain  
Wind Chill: 60°   Ceiling: 3900
Heat Index: 60°   Visibility: 4mi
Dew Point: 58°   Wind: 6mph
Humidity: 93%   Direction: 80°E
Pressure: 30.1"   Gusts: NA
Location:  36.51°N, 121.44°W
Report Text: KSNS 251753Z AUTO 08005KT 4SM -RA BR FEW021 BKN039 OVC048 16/14 A3010 RMK AO2 SLP202 P0001 60017 T01560144 10156 20139 51036
Loading
Personal Weather Stations






























Interactive Weather Map
Tropical Storm Tracking
New forecast layout! Learn more

10-Day Weather Forecast

Advertisements
Track Severe Weather on mobile